sensor_id;sensor_type;location;lat;lon;timestamp;P1;durP1;ratioP1;P2;durP2;ratioP2
64710;SDS011;51139;45.626;6.850;2023-01-09T00:02:05;2.88;;;1.40;;
64710;SDS011;51139;45.626;6.850;2023-01-09T00:04:31;0.70;;;0.50;;
64710;SDS011;51139;45.626;6.850;2023-01-09T00:06:56;3.67;;;2.05;;
64710;SDS011;51139;45.626;6.850;2023-01-09T00:09:22;3.75;;;1.88;;
64710;SDS011;51139;45.626;6.850;2023-01-09T00:11:48;3.60;;;1.75;;
64710;SDS011;51139;45.626;6.850;2023-01-09T00:14:14;1.58;;;0.93;;
64710;SDS011;51139;45.626;6.850;2023-01-09T00:16:40;1.75;;;0.95;;
64710;SDS011;51139;45.626;6.850;2023-01-09T00:19:06;1.73;;;0.70;;
64710;SDS011;51139;45.626;6.850;2023-01-09T00:21:32;1.42;;;0.80;;
64710;SDS011;51139;45.626;6.850;2023-01-09T00:23:57;1.45;;;0.90;;
64710;SDS011;51139;45.626;6.850;2023-01-09T00:26:22;0.88;;;0.55;;
64710;SDS011;51139;45.626;6.850;2023-01-09T00:28:48;0.98;;;0.50;;
64710;SDS011;51139;45.626;6.850;2023-01-09T00:31:15;0.40;;;0.30;;
64710;SDS011;51139;45.626;6.850;2023-01-09T00:33:54;1.27;;;0.65;;
64710;SDS011;51139;45.626;6.850;2023-01-09T00:36:23;0.98;;;0.30;;
64710;SDS011;51139;45.626;6.850;2023-01-09T00:38:48;2.78;;;1.05;;
64710;SDS011;51139;45.626;6.850;2023-01-09T00:41:15;4.85;;;2.00;;
64710;SDS011;51139;45.626;6.850;2023-01-09T00:43:59;0.30;;;0.30;;
64710;SDS011;51139;45.626;6.850;2023-01-09T00:46:30;7.70;;;2.92;;
64710;SDS011;51139;45.626;6.850;2023-01-09T00:48:58;4.80;;;2.00;;
64710;SDS011;51139;45.626;6.850;2023-01-09T00:51:27;1.00;;;0.60;;
64710;SDS011;51139;45.626;6.850;2023-01-09T00:53:52;1.45;;;0.47;;
64710;SDS011;51139;45.626;6.850;2023-01-09T00:56:18;1.85;;;0.40;;
64710;SDS011;51139;45.626;6.850;2023-01-09T00:58:44;1.05;;;0.70;;
64710;SDS011;51139;45.626;6.850;2023-01-09T01:01:10;2.50;;;1.30;;
64710;SDS011;51139;45.626;6.850;2023-01-09T01:03:36;3.33;;;1.60;;
64710;SDS011;51139;45.626;6.850;2023-01-09T01:06:02;0.73;;;0.52;;
64710;SDS011;51139;45.626;6.850;2023-01-09T01:08:46;1.88;;;1.05;;
64710;SDS011;51139;45.626;6.850;2023-01-09T01:11:11;68.00;;;8.10;;
64710;SDS011;51139;45.626;6.850;2023-01-09T01:13:37;131.15;;;7.80;;
64710;SDS011;51139;45.626;6.850;2023-01-09T01:16:05;161.05;;;10.25;;
64710;SDS011;51139;45.626;6.850;2023-01-09T01:18:31;126.70;;;7.53;;
64710;SDS011;51139;45.626;6.850;2023-01-09T01:20:57;34.10;;;3.83;;
64710;SDS011;51139;45.626;6.850;2023-01-09T01:23:22;31.83;;;1.98;;
64710;SDS011;51139;45.626;6.850;2023-01-09T01:25:48;66.85;;;4.88;;
64710;SDS011;51139;45.626;6.850;2023-01-09T01:28:13;96.30;;;6.78;;
64710;SDS011;51139;45.626;6.850;2023-01-09T01:30:39;21.40;;;1.15;;
64710;SDS011;51139;45.626;6.850;2023-01-09T01:33:06;11.98;;;1.80;;
64710;SDS011;51139;45.626;6.850;2023-01-09T01:35:32;27.92;;;1.52;;
64710;SDS011;51139;45.626;6.850;2023-01-09T01:37:58;30.65;;;2.95;;
64710;SDS011;51139;45.626;6.850;2023-01-09T01:40:24;92.70;;;8.80;;
64710;SDS011;51139;45.626;6.850;2023-01-09T01:42:51;148.27;;;10.98;;
64710;SDS011;51139;45.626;6.850;2023-01-09T01:45:22;114.35;;;6.75;;
64710;SDS011;51139;45.626;6.850;2023-01-09T01:50:34;78.30;;;5.10;;
64710;SDS011;51139;45.626;6.850;2023-01-09T01:53:06;379.90;;;21.38;;
64710;SDS011;51139;45.626;6.850;2023-01-09T01:55:39;435.67;;;25.80;;
64710;SDS011;51139;45.626;6.850;2023-01-09T01:58:08;291.77;;;15.93;;
64710;SDS011;51139;45.626;6.850;2023-01-09T02:00:38;219.60;;;12.55;;
64710;SDS011;51139;45.626;6.850;2023-01-09T02:03:06;342.08;;;20.55;;
64710;SDS011;51139;45.626;6.850;2023-01-09T02:05:32;357.40;;;23.58;;
64710;SDS011;51139;45.626;6.850;2023-01-09T02:07:58;351.35;;;21.05;;
64710;SDS011;51139;45.626;6.850;2023-01-09T02:10:24;282.33;;;16.85;;
64710;SDS011;51139;45.626;6.850;2023-01-09T02:12:49;258.35;;;17.40;;
64710;SDS011;51139;45.626;6.850;2023-01-09T02:15:15;249.70;;;15.15;;
64710;SDS011;51139;45.626;6.850;2023-01-09T02:21:00;164.38;;;11.02;;
64710;SDS011;51139;45.626;6.850;2023-01-09T02:31:34;7.50;;;0.25;;
64710;SDS011;51139;45.626;6.850;2023-01-09T02:42:14;29.90;;;1.17;;
64710;SDS011;51139;45.626;6.850;2023-01-09T02:44:40;37.85;;;2.33;;
64710;SDS011;51139;45.626;6.850;2023-01-09T02:47:34;17.38;;;1.23;;
64710;SDS011;51139;45.626;6.850;2023-01-09T02:49:56;42.45;;;2.58;;
64710;SDS011;51139;45.626;6.850;2023-01-09T03:06:19;3.38;;;0.77;;
64710;SDS011;51139;45.626;6.850;2023-01-09T03:08:48;1.73;;;1.10;;
64710;SDS011;51139;45.626;6.850;2023-01-09T03:11:18;1.70;;;0.30;;
64710;SDS011;51139;45.626;6.850;2023-01-09T03:13:47;8.55;;;5.60;;
64710;SDS011;51139;45.626;6.850;2023-01-09T03:16:27;4.50;;;2.60;;
64710;SDS011;51139;45.626;6.850;2023-01-09T03:18:59;0.40;;;0.30;;
64710;SDS011;51139;45.626;6.850;2023-01-09T03:21:27;0.20;;;0.10;;
64710;SDS011;51139;45.626;6.850;2023-01-09T03:23:56;2.85;;;1.60;;
64710;SDS011;51139;45.626;6.850;2023-01-09T03:26:23;7.70;;;1.67;;
64710;SDS011;51139;45.626;6.850;2023-01-09T03:28:49;28.45;;;6.57;;
64710;SDS011;51139;45.626;6.850;2023-01-09T03:31:15;39.15;;;6.07;;
64710;SDS011;51139;45.626;6.850;2023-01-09T03:33:41;19.52;;;2.80;;
64710;SDS011;51139;45.626;6.850;2023-01-09T03:36:08;3.00;;;1.98;;
64710;SDS011;51139;45.626;6.850;2023-01-09T03:38:34;4.95;;;1.70;;
64710;SDS011;51139;45.626;6.850;2023-01-09T03:41:00;89.93;;;7.45;;
64710;SDS011;51139;45.626;6.850;2023-01-09T03:43:26;5.25;;;1.63;;
64710;SDS011;51139;45.626;6.850;2023-01-09T03:45:52;4.35;;;1.00;;
64710;SDS011;51139;45.626;6.850;2023-01-09T03:48:17;84.45;;;6.18;;
64710;SDS011;51139;45.626;6.850;2023-01-09T03:50:42;3.90;;;0.80;;
64710;SDS011;51139;45.626;6.850;2023-01-09T03:53:10;1.88;;;1.10;;
64710;SDS011;51139;45.626;6.850;2023-01-09T03:55:37;3.08;;;1.60;;
64710;SDS011;51139;45.626;6.850;2023-01-09T03:58:03;1.70;;;1.08;;
64710;SDS011;51139;45.626;6.850;2023-01-09T04:00:28;3.33;;;2.38;;
64710;SDS011;51139;45.626;6.850;2023-01-09T04:02:54;0.82;;;0.82;;
64710;SDS011;51139;45.626;6.850;2023-01-09T04:05:19;1.52;;;0.70;;
64710;SDS011;51139;45.626;6.850;2023-01-09T04:07:44;0.55;;;0.38;;
64710;SDS011;51139;45.626;6.850;2023-01-09T04:10:10;0.60;;;0.20;;
64710;SDS011;51139;45.626;6.850;2023-01-09T04:12:35;6.25;;;0.90;;
64710;SDS011;51139;45.626;6.850;2023-01-09T04:15:01;75.25;;;3.70;;
64710;SDS011;51139;45.626;6.850;2023-01-09T04:17:26;73.78;;;4.00;;
64710;SDS011;51139;45.626;6.850;2023-01-09T04:19:52;50.83;;;3.58;;
64710;SDS011;51139;45.626;6.850;2023-01-09T04:22:17;19.48;;;1.13;;
64710;SDS011;51139;45.626;6.850;2023-01-09T04:24:42;4.13;;;0.28;;
64710;SDS011;51139;45.626;6.850;2023-01-09T04:27:08;1.88;;;0.63;;
64710;SDS011;51139;45.626;6.850;2023-01-09T04:29:33;2.67;;;1.30;;
64710;SDS011;51139;45.626;6.850;2023-01-09T04:31:59;0.68;;;0.30;;
64710;SDS011;51139;45.626;6.850;2023-01-09T04:34:24;2.40;;;1.05;;
64710;SDS011;51139;45.626;6.850;2023-01-09T04:36:50;1.90;;;0.90;;
64710;SDS011;51139;45.626;6.850;2023-01-09T04:39:17;2.80;;;1.48;;
64710;SDS011;51139;45.626;6.850;2023-01-09T04:41:42;0.95;;;0.60;;
64710;SDS011;51139;45.626;6.850;2023-01-09T04:44:15;1.45;;;1.20;;
64710;SDS011;51139;45.626;6.850;2023-01-09T04:49:10;1.98;;;0.98;;
64710;SDS011;51139;45.626;6.850;2023-01-09T04:51:35;0.38;;;0.32;;
64710;SDS011;51139;45.626;6.850;2023-01-09T04:54:01;6.88;;;0.63;;
64710;SDS011;51139;45.626;6.850;2023-01-09T04:56:26;0.40;;;0.20;;
64710;SDS011;51139;45.626;6.850;2023-01-09T04:58:52;0.20;;;0.13;;
64710;SDS011;51139;45.626;6.850;2023-01-09T05:01:17;0.57;;;0.20;;
64710;SDS011;51139;45.626;6.850;2023-01-09T05:03:43;0.17;;;0.10;;
64710;SDS011;51139;45.626;6.850;2023-01-09T05:06:08;1.58;;;0.75;;
64710;SDS011;51139;45.626;6.850;2023-01-09T05:08:33;1.60;;;0.60;;
64710;SDS011;51139;45.626;6.850;2023-01-09T05:10:59;1.23;;;0.20;;
64710;SDS011;51139;45.626;6.850;2023-01-09T05:13:25;0.40;;;0.28;;
64710;SDS011;51139;45.626;6.850;2023-01-09T05:15:50;0.35;;;0.20;;
64710;SDS011;51139;45.626;6.850;2023-01-09T05:18:16;0.20;;;0.15;;
64710;SDS011;51139;45.626;6.850;2023-01-09T05:20:41;0.10;;;0.10;;
64710;SDS011;51139;45.626;6.850;2023-01-09T05:23:07;0.10;;;0.10;;
64710;SDS011;51139;45.626;6.850;2023-01-09T05:25:32;0.10;;;0.10;;
64710;SDS011;51139;45.626;6.850;2023-01-09T05:27:57;0.28;;;0.15;;
64710;SDS011;51139;45.626;6.850;2023-01-09T05:30:25;0.20;;;0.20;;
64710;SDS011;51139;45.626;6.850;2023-01-09T05:32:50;0.20;;;0.20;;
64710;SDS011;51139;45.626;6.850;2023-01-09T05:35:16;0.10;;;0.10;;
64710;SDS011;51139;45.626;6.850;2023-01-09T05:37:41;0.10;;;0.10;;
64710;SDS011;51139;45.626;6.850;2023-01-09T05:40:07;0.13;;;0.10;;
64710;SDS011;51139;45.626;6.850;2023-01-09T05:42:33;0.30;;;0.10;;
64710;SDS011;51139;45.626;6.850;2023-01-09T05:44:58;0.17;;;0.10;;
64710;SDS011;51139;45.626;6.850;2023-01-09T05:47:23;0.43;;;0.20;;
64710;SDS011;51139;45.626;6.850;2023-01-09T05:49:49;0.28;;;0.20;;
64710;SDS011;51139;45.626;6.850;2023-01-09T05:52:14;0.28;;;0.13;;
64710;SDS011;51139;45.626;6.850;2023-01-09T05:54:39;1.90;;;0.17;;
64710;SDS011;51139;45.626;6.850;2023-01-09T05:57:05;0.10;;;0.10;;
64710;SDS011;51139;45.626;6.850;2023-01-09T05:59:30;0.10;;;0.10;;
64710;SDS011;51139;45.626;6.850;2023-01-09T06:01:56;0.10;;;0.10;;
64710;SDS011;51139;45.626;6.850;2023-01-09T06:04:21;1.05;;;0.20;;
64710;SDS011;51139;45.626;6.850;2023-01-09T06:06:46;0.20;;;0.20;;
64710;SDS011;51139;45.626;6.850;2023-01-09T06:09:12;1.38;;;0.10;;
64710;SDS011;51139;45.626;6.850;2023-01-09T06:11:37;0.47;;;0.17;;
64710;SDS011;51139;45.626;6.850;2023-01-09T06:14:03;0.10;;;0.10;;
64710;SDS011;51139;45.626;6.850;2023-01-09T06:16:29;0.85;;;0.10;;
64710;SDS011;51139;45.626;6.850;2023-01-09T06:18:55;0.20;;;0.10;;
64710;SDS011;51139;45.626;6.850;2023-01-09T06:21:21;0.10;;;0.10;;
64710;SDS011;51139;45.626;6.850;2023-01-09T06:23:46;0.32;;;0.10;;
64710;SDS011;51139;45.626;6.850;2023-01-09T06:26:11;0.52;;;0.13;;
64710;SDS011;51139;45.626;6.850;2023-01-09T06:28:37;0.43;;;0.20;;
64710;SDS011;51139;45.626;6.850;2023-01-09T06:31:02;0.43;;;0.20;;
64710;SDS011;51139;45.626;6.850;2023-01-09T06:33:28;0.73;;;0.20;;
64710;SDS011;51139;45.626;6.850;2023-01-09T06:35:53;0.20;;;0.20;;
64710;SDS011;51139;45.626;6.850;2023-01-09T06:38:19;0.73;;;0.20;;
64710;SDS011;51139;45.626;6.850;2023-01-09T06:40:44;0.20;;;0.20;;
64710;SDS011;51139;45.626;6.850;2023-01-09T06:43:09;1.38;;;0.30;;
64710;SDS011;51139;45.626;6.850;2023-01-09T06:45:35;0.30;;;0.30;;
64710;SDS011;51139;45.626;6.850;2023-01-09T06:48:00;2.65;;;0.32;;
64710;SDS011;51139;45.626;6.850;2023-01-09T06:50:26;1.83;;;0.28;;
64710;SDS011;51139;45.626;6.850;2023-01-09T06:52:51;0.68;;;0.30;;
64710;SDS011;51139;45.626;6.850;2023-01-09T06:55:17;0.30;;;0.20;;
64710;SDS011;51139;45.626;6.850;2023-01-09T06:57:42;0.30;;;0.30;;
64710;SDS011;51139;45.626;6.850;2023-01-09T07:00:08;0.20;;;0.20;;
64710;SDS011;51139;45.626;6.850;2023-01-09T07:02:34;0.70;;;0.30;;
64710;SDS011;51139;45.626;6.850;2023-01-09T07:04:59;1.25;;;0.28;;
64710;SDS011;51139;45.626;6.850;2023-01-09T07:07:25;0.73;;;0.32;;
64710;SDS011;51139;45.626;6.850;2023-01-09T07:09:50;1.48;;;0.40;;
64710;SDS011;51139;45.626;6.850;2023-01-09T07:12:15;0.47;;;0.40;;
64710;SDS011;51139;45.626;6.850;2023-01-09T07:14:41;0.30;;;0.30;;
64710;SDS011;51139;45.626;6.850;2023-01-09T07:17:06;0.80;;;0.55;;
64710;SDS011;51139;45.626;6.850;2023-01-09T07:19:32;0.22;;;0.22;;
64710;SDS011;51139;45.626;6.850;2023-01-09T07:21:57;0.40;;;0.20;;
64710;SDS011;51139;45.626;6.850;2023-01-09T07:24:23;0.77;;;0.13;;
64710;SDS011;51139;45.626;6.850;2023-01-09T07:26:48;0.52;;;0.20;;
64710;SDS011;51139;45.626;6.850;2023-01-09T07:29:13;0.38;;;0.28;;
64710;SDS011;51139;45.626;6.850;2023-01-09T07:31:39;1.55;;;0.20;;
64710;SDS011;51139;45.626;6.850;2023-01-09T07:34:04;2.55;;;0.30;;
64710;SDS011;51139;45.626;6.850;2023-01-09T07:36:29;0.82;;;0.30;;
64710;SDS011;51139;45.626;6.850;2023-01-09T07:38:55;1.90;;;0.40;;
64710;SDS011;51139;45.626;6.850;2023-01-09T07:41:20;1.00;;;0.35;;
64710;SDS011;51139;45.626;6.850;2023-01-09T07:43:46;1.85;;;0.50;;
64710;SDS011;51139;45.626;6.850;2023-01-09T07:46:11;1.52;;;0.50;;
64710;SDS011;51139;45.626;6.850;2023-01-09T07:48:36;0.60;;;0.40;;
64710;SDS011;51139;45.626;6.850;2023-01-09T07:51:02;0.88;;;0.40;;
64710;SDS011;51139;45.626;6.850;2023-01-09T07:53:27;0.57;;;0.30;;
64710;SDS011;51139;45.626;6.850;2023-01-09T07:55:53;0.82;;;0.40;;
64710;SDS011;51139;45.626;6.850;2023-01-09T07:58:18;1.15;;;0.40;;
64710;SDS011;51139;45.626;6.850;2023-01-09T08:00:44;1.60;;;0.70;;
64710;SDS011;51139;45.626;6.850;2023-01-09T08:03:09;0.65;;;0.30;;
64710;SDS011;51139;45.626;6.850;2023-01-09T08:05:34;3.10;;;0.68;;
64710;SDS011;51139;45.626;6.850;2023-01-09T08:08:00;1.10;;;0.22;;
64710;SDS011;51139;45.626;6.850;2023-01-09T08:10:26;0.57;;;0.20;;
64710;SDS011;51139;45.626;6.850;2023-01-09T08:12:53;0.65;;;0.30;;
64710;SDS011;51139;45.626;6.850;2023-01-09T08:15:18;1.40;;;0.30;;
64710;SDS011;51139;45.626;6.850;2023-01-09T08:17:44;2.60;;;0.40;;
64710;SDS011;51139;45.626;6.850;2023-01-09T08:20:10;1.25;;;0.30;;
64710;SDS011;51139;45.626;6.850;2023-01-09T08:22:39;0.80;;;0.30;;
64710;SDS011;51139;45.626;6.850;2023-01-09T08:25:05;0.85;;;0.35;;
64710;SDS011;51139;45.626;6.850;2023-01-09T08:27:31;2.47;;;0.50;;
64710;SDS011;51139;45.626;6.850;2023-01-09T08:29:57;1.08;;;0.40;;
64710;SDS011;51139;45.626;6.850;2023-01-09T08:32:22;1.85;;;0.88;;
64710;SDS011;51139;45.626;6.850;2023-01-09T08:34:48;1.30;;;0.77;;
64710;SDS011;51139;45.626;6.850;2023-01-09T08:37:13;1.40;;;0.82;;
64710;SDS011;51139;45.626;6.850;2023-01-09T08:39:38;3.25;;;1.00;;
64710;SDS011;51139;45.626;6.850;2023-01-09T08:42:04;1.45;;;0.60;;
64710;SDS011;51139;45.626;6.850;2023-01-09T08:44:48;5.07;;;2.53;;
64710;SDS011;51139;45.626;6.850;2023-01-09T08:47:32;0.88;;;0.40;;
64710;SDS011;51139;45.626;6.850;2023-01-09T08:49:58;0.80;;;0.40;;
64710;SDS011;51139;45.626;6.850;2023-01-09T08:52:24;2.78;;;0.65;;
64710;SDS011;51139;45.626;6.850;2023-01-09T08:54:49;0.85;;;0.75;;
64710;SDS011;51139;45.626;6.850;2023-01-09T08:57:14;0.63;;;0.60;;
64710;SDS011;51139;45.626;6.850;2023-01-09T08:59:40;0.85;;;0.50;;
64710;SDS011;51139;45.626;6.850;2023-01-09T09:02:05;3.85;;;0.55;;
64710;SDS011;51139;45.626;6.850;2023-01-09T09:04:30;0.93;;;0.50;;
64710;SDS011;51139;45.626;6.850;2023-01-09T09:06:56;1.13;;;0.60;;
64710;SDS011;51139;45.626;6.850;2023-01-09T09:09:21;0.95;;;0.70;;
64710;SDS011;51139;45.626;6.850;2023-01-09T09:11:47;3.33;;;0.60;;
64710;SDS011;51139;45.626;6.850;2023-01-09T09:14:12;1.10;;;0.60;;
64710;SDS011;51139;45.626;6.850;2023-01-09T09:16:56;2.03;;;0.70;;
64710;SDS011;51139;45.626;6.850;2023-01-09T09:19:21;4.82;;;1.70;;
64710;SDS011;51139;45.626;6.850;2023-01-09T09:21:47;6.15;;;3.22;;
64710;SDS011;51139;45.626;6.850;2023-01-09T09:24:12;5.28;;;3.97;;
64710;SDS011;51139;45.626;6.850;2023-01-09T09:26:37;2.78;;;0.90;;
64710;SDS011;51139;45.626;6.850;2023-01-09T09:29:03;1.17;;;0.32;;
64710;SDS011;51139;45.626;6.850;2023-01-09T09:31:28;0.95;;;0.40;;
64710;SDS011;51139;45.626;6.850;2023-01-09T09:33:54;1.25;;;0.40;;
64710;SDS011;51139;45.626;6.850;2023-01-09T09:36:20;1.02;;;0.25;;
64710;SDS011;51139;45.626;6.850;2023-01-09T09:38:45;8.07;;;3.13;;
64710;SDS011;51139;45.626;6.850;2023-01-09T09:55:57;1.20;;;0.40;;
64710;SDS011;51139;45.626;6.850;2023-01-09T09:58:34;1.83;;;0.40;;
64710;SDS011;51139;45.626;6.850;2023-01-09T10:01:02;3.15;;;0.80;;
64710;SDS011;51139;45.626;6.850;2023-01-09T10:03:31;1.08;;;0.30;;
64710;SDS011;51139;45.626;6.850;2023-01-09T10:05:58;1.95;;;0.63;;
64710;SDS011;51139;45.626;6.850;2023-01-09T10:11:22;0.90;;;0.32;;
64710;SDS011;51139;45.626;6.850;2023-01-09T10:13:56;1.20;;;0.50;;
64710;SDS011;51139;45.626;6.850;2023-01-09T10:21:46;1.42;;;0.40;;
64710;SDS011;51139;45.626;6.850;2023-01-09T10:27:15;0.82;;;0.43;;
64710;SDS011;51139;45.626;6.850;2023-01-09T10:29:51;2.65;;;1.73;;
64710;SDS011;51139;45.626;6.850;2023-01-09T10:37:57;103.78;;;80.25;;
64710;SDS011;51139;45.626;6.850;2023-01-09T10:40:31;14.48;;;10.85;;
64710;SDS011;51139;45.626;6.850;2023-01-09T10:43:03;10.85;;;9.75;;
64710;SDS011;51139;45.626;6.850;2023-01-09T10:45:40;4.70;;;3.65;;
64710;SDS011;51139;45.626;6.850;2023-01-09T10:51:00;2.08;;;0.90;;
64710;SDS011;51139;45.626;6.850;2023-01-09T10:53:35;99.38;;;8.18;;
64710;SDS011;51139;45.626;6.850;2023-01-09T10:58:52;24.85;;;2.85;;
64710;SDS011;51139;45.626;6.850;2023-01-09T11:01:20;52.33;;;30.23;;
64710;SDS011;51139;45.626;6.850;2023-01-09T11:03:50;8.07;;;4.57;;
64710;SDS011;51139;45.626;6.850;2023-01-09T11:06:23;52.53;;;3.50;;
64710;SDS011;51139;45.626;6.850;2023-01-09T11:08:54;60.55;;;4.50;;
64710;SDS011;51139;45.626;6.850;2023-01-09T11:14:05;25.60;;;2.05;;
64710;SDS011;51139;45.626;6.850;2023-01-09T11:16:39;80.57;;;4.75;;
64710;SDS011;51139;45.626;6.850;2023-01-09T11:19:15;169.77;;;10.43;;
64710;SDS011;51139;45.626;6.850;2023-01-09T11:21:40;134.18;;;8.85;;
64710;SDS011;51139;45.626;6.850;2023-01-09T11:26:46;18.40;;;1.60;;
64710;SDS011;51139;45.626;6.850;2023-01-09T11:29:14;3.40;;;1.15;;
64710;SDS011;51139;45.626;6.850;2023-01-09T11:31:42;3.28;;;0.50;;
64710;SDS011;51139;45.626;6.850;2023-01-09T11:34:20;2.08;;;0.40;;
64710;SDS011;51139;45.626;6.850;2023-01-09T11:36:48;1.92;;;1.02;;
64710;SDS011;51139;45.626;6.850;2023-01-09T11:39:23;1.58;;;0.98;;
64710;SDS011;51139;45.626;6.850;2023-01-09T11:41:55;1.50;;;1.00;;
64710;SDS011;51139;45.626;6.850;2023-01-09T11:44:22;2.75;;;1.55;;
64710;SDS011;51139;45.626;6.850;2023-01-09T11:46:48;3.20;;;1.05;;
64710;SDS011;51139;45.626;6.850;2023-01-09T11:52:04;0.80;;;0.57;;
64710;SDS011;51139;45.626;6.850;2023-01-09T11:54:35;5.63;;;0.63;;
64710;SDS011;51139;45.626;6.850;2023-01-09T11:57:05;1.35;;;0.60;;
64710;SDS011;51139;45.626;6.850;2023-01-09T11:59:34;3.80;;;1.70;;
64710;SDS011;51139;45.626;6.850;2023-01-09T12:05:06;4.88;;;0.52;;
64710;SDS011;51139;45.626;6.850;2023-01-09T12:07:59;13.70;;;1.20;;
64710;SDS011;51139;45.626;6.850;2023-01-09T12:10:54;4.53;;;2.20;;
64710;SDS011;51139;45.626;6.850;2023-01-09T12:16:32;6.43;;;2.40;;
64710;SDS011;51139;45.626;6.850;2023-01-09T12:19:13;40.88;;;3.45;;
64710;SDS011;51139;45.626;6.850;2023-01-09T12:24:51;24.52;;;2.45;;
64710;SDS011;51139;45.626;6.850;2023-01-09T12:36:02;376.00;;;29.63;;
64710;SDS011;51139;45.626;6.850;2023-01-09T12:38:40;440.67;;;27.70;;
64710;SDS011;51139;45.626;6.850;2023-01-09T12:49:25;160.98;;;12.60;;
64710;SDS011;51139;45.626;6.850;2023-01-09T12:51:58;53.92;;;8.13;;
64710;SDS011;51139;45.626;6.850;2023-01-09T12:54:46;96.85;;;7.75;;
64710;SDS011;51139;45.626;6.850;2023-01-09T13:00:10;2.60;;;1.30;;
64710;SDS011;51139;45.626;6.850;2023-01-09T13:02:51;103.43;;;8.43;;
64710;SDS011;51139;45.626;6.850;2023-01-09T13:05:23;53.75;;;6.00;;
64710;SDS011;51139;45.626;6.850;2023-01-09T13:07:54;137.35;;;13.77;;
64710;SDS011;51139;45.626;6.850;2023-01-09T13:10:29;2.55;;;1.23;;
64710;SDS011;51139;45.626;6.850;2023-01-09T13:12:57;59.92;;;8.10;;
64710;SDS011;51139;45.626;6.850;2023-01-09T13:18:26;4.35;;;2.70;;
64710;SDS011;51139;45.626;6.850;2023-01-09T13:20:58;144.82;;;10.57;;
64710;SDS011;51139;45.626;6.850;2023-01-09T13:28:35;460.42;;;27.52;;
64710;SDS011;51139;45.626;6.850;2023-01-09T13:36:23;489.65;;;27.67;;
64710;SDS011;51139;45.626;6.850;2023-01-09T13:38:52;477.48;;;29.63;;
64710;SDS011;51139;45.626;6.850;2023-01-09T13:41:21;535.00;;;34.10;;
64710;SDS011;51139;45.626;6.850;2023-01-09T13:44:23;263.55;;;16.42;;
64710;SDS011;51139;45.626;6.850;2023-01-09T13:46:53;454.60;;;26.65;;
64710;SDS011;51139;45.626;6.850;2023-01-09T13:52:02;211.75;;;13.27;;
64710;SDS011;51139;45.626;6.850;2023-01-09T13:57:17;455.77;;;33.30;;
64710;SDS011;51139;45.626;6.850;2023-01-09T13:59:50;408.70;;;28.15;;
64710;SDS011;51139;45.626;6.850;2023-01-09T14:07:33;81.03;;;29.50;;
64710;SDS011;51139;45.626;6.850;2023-01-09T14:10:00;33.13;;;4.63;;
64710;SDS011;51139;45.626;6.850;2023-01-09T14:12:29;82.45;;;9.85;;
64710;SDS011;51139;45.626;6.850;2023-01-09T14:15:02;34.42;;;19.38;;
64710;SDS011;51139;45.626;6.850;2023-01-09T14:17:33;7.68;;;4.85;;
64710;SDS011;51139;45.626;6.850;2023-01-09T14:20:17;179.27;;;14.68;;
64710;SDS011;51139;45.626;6.850;2023-01-09T14:22:55;30.13;;;4.57;;
64710;SDS011;51139;45.626;6.850;2023-01-09T14:25:23;146.55;;;11.95;;
64710;SDS011;51139;45.626;6.850;2023-01-09T14:36:26;7.03;;;4.82;;
64710;SDS011;51139;45.626;6.850;2023-01-09T14:41:18;12.15;;;1.33;;
64710;SDS011;51139;45.626;6.850;2023-01-09T14:43:46;130.93;;;7.40;;
64710;SDS011;51139;45.626;6.850;2023-01-09T14:46:18;279.27;;;16.90;;
64710;SDS011;51139;45.626;6.850;2023-01-09T14:48:50;228.45;;;16.40;;
64710;SDS011;51139;45.626;6.850;2023-01-09T14:51:24;341.92;;;23.38;;
64710;SDS011;51139;45.626;6.850;2023-01-09T14:53:53;377.08;;;22.02;;
64710;SDS011;51139;45.626;6.850;2023-01-09T14:56:24;289.23;;;17.85;;
64710;SDS011;51139;45.626;6.850;2023-01-09T14:59:05;111.22;;;11.20;;
64710;SDS011;51139;45.626;6.850;2023-01-09T15:01:36;213.93;;;14.50;;
64710;SDS011;51139;45.626;6.850;2023-01-09T15:04:09;81.90;;;4.85;;
64710;SDS011;51139;45.626;6.850;2023-01-09T15:07:04;106.25;;;10.23;;
64710;SDS011;51139;45.626;6.850;2023-01-09T15:09:43;67.32;;;6.05;;
64710;SDS011;51139;45.626;6.850;2023-01-09T15:12:19;7.50;;;1.52;;
64710;SDS011;51139;45.626;6.850;2023-01-09T15:14:48;11.75;;;1.50;;
64710;SDS011;51139;45.626;6.850;2023-01-09T15:17:19;40.88;;;2.72;;
64710;SDS011;51139;45.626;6.850;2023-01-09T15:19:47;134.27;;;8.05;;
64710;SDS011;51139;45.626;6.850;2023-01-09T15:22:21;43.10;;;3.00;;
64710;SDS011;51139;45.626;6.850;2023-01-09T15:24:52;94.22;;;5.15;;
64710;SDS011;51139;45.626;6.850;2023-01-09T15:27:18;46.95;;;3.67;;
64710;SDS011;51139;45.626;6.850;2023-01-09T15:29:46;120.50;;;7.28;;
64710;SDS011;51139;45.626;6.850;2023-01-09T15:32:16;99.25;;;6.68;;
64710;SDS011;51139;45.626;6.850;2023-01-09T15:34:50;177.32;;;9.45;;
64710;SDS011;51139;45.626;6.850;2023-01-09T15:37:28;114.13;;;7.20;;
64710;SDS011;51139;45.626;6.850;2023-01-09T15:39:54;130.65;;;8.15;;
64710;SDS011;51139;45.626;6.850;2023-01-09T15:42:25;34.03;;;3.17;;
64710;SDS011;51139;45.626;6.850;2023-01-09T15:45:22;48.92;;;2.75;;
64710;SDS011;51139;45.626;6.850;2023-01-09T15:47:51;228.52;;;16.25;;
64710;SDS011;51139;45.626;6.850;2023-01-09T15:50:20;119.90;;;6.40;;
64710;SDS011;51139;45.626;6.850;2023-01-09T15:52:50;68.88;;;15.05;;
64710;SDS011;51139;45.626;6.850;2023-01-09T15:55:32;32.55;;;4.72;;
64710;SDS011;51139;45.626;6.850;2023-01-09T15:58:01;105.30;;;10.73;;
64710;SDS011;51139;45.626;6.850;2023-01-09T16:00:36;41.67;;;4.22;;
64710;SDS011;51139;45.626;6.850;2023-01-09T16:03:16;3.58;;;1.88;;
64710;SDS011;51139;45.626;6.850;2023-01-09T16:05:45;82.18;;;5.95;;
64710;SDS011;51139;45.626;6.850;2023-01-09T16:10:58;22.02;;;4.70;;
64710;SDS011;51139;45.626;6.850;2023-01-09T16:13:30;5.43;;;1.65;;
64710;SDS011;51139;45.626;6.850;2023-01-09T16:15:59;5.10;;;1.05;;
64710;SDS011;51139;45.626;6.850;2023-01-09T16:18:28;24.67;;;3.30;;
64710;SDS011;51139;45.626;6.850;2023-01-09T16:21:29;3.80;;;2.10;;
64710;SDS011;51139;45.626;6.850;2023-01-09T16:23:53;3.17;;;2.25;;
64710;SDS011;51139;45.626;6.850;2023-01-09T16:26:22;52.60;;;4.75;;
64710;SDS011;51139;45.626;6.850;2023-01-09T16:28:49;121.70;;;10.98;;
64710;SDS011;51139;45.626;6.850;2023-01-09T16:33:48;2.90;;;1.90;;
64710;SDS011;51139;45.626;6.850;2023-01-09T16:36:18;6.50;;;1.80;;
64710;SDS011;51139;45.626;6.850;2023-01-09T16:38:45;2.80;;;1.58;;
64710;SDS011;51139;45.626;6.850;2023-01-09T16:41:14;19.40;;;9.02;;
64710;SDS011;51139;45.626;6.850;2023-01-09T16:44:03;11.98;;;4.03;;
64710;SDS011;51139;45.626;6.850;2023-01-09T16:49:25;8.30;;;3.88;;
64710;SDS011;51139;45.626;6.850;2023-01-09T16:51:52;7.43;;;5.15;;
64710;SDS011;51139;45.626;6.850;2023-01-09T16:54:19;22.48;;;7.45;;
64710;SDS011;51139;45.626;6.850;2023-01-09T16:56:49;18.42;;;8.15;;
64710;SDS011;51139;45.626;6.850;2023-01-09T16:59:19;24.02;;;2.42;;
64710;SDS011;51139;45.626;6.850;2023-01-09T17:01:48;7.32;;;1.80;;
64710;SDS011;51139;45.626;6.850;2023-01-09T17:04:15;10.80;;;3.00;;
64710;SDS011;51139;45.626;6.850;2023-01-09T17:06:41;40.03;;;7.15;;
64710;SDS011;51139;45.626;6.850;2023-01-09T17:09:10;3.35;;;1.38;;
64710;SDS011;51139;45.626;6.850;2023-01-09T17:11:37;4.22;;;2.40;;
64710;SDS011;51139;45.626;6.850;2023-01-09T17:14:03;2.83;;;1.40;;
64710;SDS011;51139;45.626;6.850;2023-01-09T17:16:30;7.80;;;3.28;;
64710;SDS011;51139;45.626;6.850;2023-01-09T17:18:57;5.47;;;3.13;;
64710;SDS011;51139;45.626;6.850;2023-01-09T17:21:23;1.85;;;1.10;;
64710;SDS011;51139;45.626;6.850;2023-01-09T17:23:52;2.58;;;2.35;;